Alvada, Ohio
Current Conditions -  °F | °C
As of 4:53 AM on Thursday 23 Oct 2014 (Local Time) from KFDY Reporting Station
Haze Haze  
Wind Chill:   Ceiling: Unl
Heat Index:   Visibility: 4mi
Dew Point:   Wind: 3mph
Humidity: 89%   Direction: 270°W
Pressure: 30.25"   Gusts: NA
Location:  41.05°N, 83.4°W
Report Text: KFDY 230853Z AUTO 27003KT 4SM BR CLR 03/02 A3025 RMK AO2 SLP243 T00330017 55004
Loading
Personal Weather Stations






























Interactive Weather Map
Tropical Storm Tracking
New forecast layout! Learn more

10-Day Weather Forecast

Advertisements
Track Severe Weather on mobile